< < Back
Terminal Aerodrome Forecast


Current Version              Previous Versions:   1  2  3  4  5  6  7  8  9  

Terminal Aerodrome Forecast

134
FTUS42 KFFC 181600 AAB
TAFMCN
TAF AMD
KMCN 181609Z 1816/1912 05014G24KT 3SM SHRA BR OVC008
     FM190200 03018G28KT 2SM SHRA BR OVC008=

Latest METAR

007
SAUS80 KWBC 182100 RRC
MTRMCN
METAR KMCN 182053Z 06012G18KT 2SM RA BR OVC008 12/11 A3008 RMK AO2
SLP184 P0017 60044 T01170111 58022


USA.gov is the U.S. government's official web portal to all federal, state and local government web resources and services.